Monatstabelle

Bitte in den Auwahlmenüs den gewünschte Zeiraum wählen und die Schaltfläche "Anfrage absenden" betätigen. Beginn der Aufzeichnung ist 2007 - Dezember. Vor diesem Zeitraum sind keine Daten verfügbar.

2017 - April

 

Datum Temperatur (°C) Luftdruck (hPa) Luftfeuchte (%) Regen
(l/m²)
Wind (km/h)
avg: min: max: avg: min: max: avg: min: max: avg: max:
01.04.2017 17,9 12,4 23,5 1012,2 1010,2 1015,7 44 32 61 0,0 10,3 17,9
02.04.2017 15,9 9,1 25,3 1015,1 1011,3 1016,7 44 21 62 0,0 6,3 12,7
03.04.2017 12,6 5,8 21,5 1018,5 1016,6 1020,1 67 45 80 0,0 3,8 16,3
04.04.2017 12,4 7,7 18,5 1017,8 1016,8 1019,4 67 53 84 2,2 12,1 19,5
05.04.2017 11,9 7,8 16,3 1016,1 1014,5 1018,4 68 55 87 1,6 6,8 17,2
06.04.2017 7,3 5,6 12,1 1017,2 1013,6 1019,0 62 47 81 0,1 12,3 22,9
07.04.2017 8,0 4,4 10,3 1016,6 1015,1 1019,4 75 59 83 0,4 8,3 17,7
08.04.2017 9,8 5,9 14,0 1020,9 1017,4 1022,8 76 65 87 0,0 6,0 20,4
09.04.2017 11,1 3,5 19,7 1023,1 1021,8 1025,4 66 42 93 0,0 3,8 11,7
10.04.2017 13,8 3,7 23,5 1015,9 1013,2 1021,9 65 41 91 0,0 1,6 9,7
11.04.2017 11,6 6,4 15,5 1019,2 1012,6 1021,7 59 45 84 0,3 11,8 19,2
12.04.2017 11,3 1,4 17,5 1014,8 1010,6 1021,9 59 43 80 0,0 4,4 8,4
13.04.2017 10,0 8,0 14,9 1011,5 1008,5 1013,0 76 53 80 0,4 1,4 16,1
14.04.2017 12,1 7,8 15,9 1013,7 1012,6 1014,6 63 50 81 0,0 4,5 12,1
15.04.2017 12,1 5,8 16,1 1012,3 1010,8 1014,4 68 48 84 0,0 1,5 6,1
16.04.2017 7,7 4,2 14,3 1014,3 1011,7 1015,9 71 41 83 0,4 3,8 15,3
17.04.2017 7,8 3,2 13,5 1012,2 1009,1 1015,9 72 45 86 4,5 4,7 18,7
18.04.2017 5,0 3,0 8,3 1014,3 1010,6 1015,6 76 61 89 0,1 10,0 20,3
19.04.2017 0,5 0,0 3,5 1018,0 1014,9 1021,1 90 74 91 1,0 16,2 26,1
20.04.2017 1,5 -0,6 3,7 1025,7 1020,9 1027,9 78 70 91 3,8 12,5 25,7
21.04.2017 5,3 -2,2 10,9 1024,2 1021,4 1027,9 63 48 84 4,4 8,0 21,6
22.04.2017 8,6 4,6 15,5 1017,3 1014,1 1021,4 67 45 86 2,2 5,0 19,2
23.04.2017 5,7 2,5 12,5 1018,7 1016,2 1020,4 67 44 85 0,1 3,8 18,0
24.04.2017 10,7 1,4 17,5 1014,5 1010,2 1020,6 58 40 75 0,0 7,1 15,8
25.04.2017 15,6 5,9 24,5 1006,0 1003,9 1010,2 56 33 81 0,5 8,3 13,4
26.04.2017 11,0 7,7 19,7 1007,2 1004,3 1009,9 71 48 84 0,0 4,8 19,6
avg. 9,9 1016,1 66   ---
  Summe Regen: 22,2  
 
Min-Datum 21.04.2017 25.04.2017 02.04.2017 --- ---
Min-Zeit 06:58 19:16 14:30 --- ---
Minimum -2,2 1003,9 21 --- ---
 

Max-Datum

02.04.2017 20.04.2017 09.04.2017 17.04.2017 19.04.2017
Max-Zeit 13:42 23:34 08:26 20:26 11:52
Maximum 25,3 1027,9 93 4,5 26,1
 

 

  Letztes Jahr
gleiches Monat
Eistage max < 0°C 0 0
Frosttage min < 0°C 2 3
Sommertage max >=25°C 1 1
Heiße Tage max >=30°C 0 0

 

<<< nach oben >>>